sensor_id;sensor_type;location;lat;lon;timestamp;temperature;humidity
12557;DHT22;6344;49.932;8.308;2023-06-22T00:02:01;22.30;99.90
12557;DHT22;6344;49.932;8.308;2023-06-22T00:04:27;22.40;99.90
12557;DHT22;6344;49.932;8.308;2023-06-22T00:06:54;22.50;99.90
12557;DHT22;6344;49.932;8.308;2023-06-22T00:09:21;22.60;99.90
12557;DHT22;6344;49.932;8.308;2023-06-22T00:11:47;22.60;99.90
12557;DHT22;6344;49.932;8.308;2023-06-22T00:14:15;22.60;99.90
12557;DHT22;6344;49.932;8.308;2023-06-22T00:16:42;22.70;99.90
12557;DHT22;6344;49.932;8.308;2023-06-22T00:19:09;22.70;99.90
12557;DHT22;6344;49.932;8.308;2023-06-22T00:21:37;22.70;99.90
12557;DHT22;6344;49.932;8.308;2023-06-22T00:24:04;22.60;99.90
12557;DHT22;6344;49.932;8.308;2023-06-22T00:26:32;22.60;99.90
12557;DHT22;6344;49.932;8.308;2023-06-22T00:28:58;22.70;99.90
12557;DHT22;6344;49.932;8.308;2023-06-22T00:31:26;22.70;99.90
12557;DHT22;6344;49.932;8.308;2023-06-22T00:33:53;22.70;99.90
12557;DHT22;6344;49.932;8.308;2023-06-22T00:36:20;22.70;99.90
12557;DHT22;6344;49.932;8.308;2023-06-22T00:38:46;22.60;99.90
12557;DHT22;6344;49.932;8.308;2023-06-22T00:41:16;22.90;99.90
12557;DHT22;6344;49.932;8.308;2023-06-22T00:43:42;22.80;99.90
12557;DHT22;6344;49.932;8.308;2023-06-22T00:46:09;22.80;99.90
12557;DHT22;6344;49.932;8.308;2023-06-22T00:48:37;22.60;99.90
12557;DHT22;6344;49.932;8.308;2023-06-22T00:51:05;22.40;99.90
12557;DHT22;6344;49.932;8.308;2023-06-22T00:53:32;22.30;99.90
12557;DHT22;6344;49.932;8.308;2023-06-22T00:56:00;22.00;99.90
12557;DHT22;6344;49.932;8.308;2023-06-22T00:58:28;21.80;99.90
12557;DHT22;6344;49.932;8.308;2023-06-22T01:00:55;21.50;99.90
12557;DHT22;6344;49.932;8.308;2023-06-22T01:03:23;21.50;99.90
12557;DHT22;6344;49.932;8.308;2023-06-22T01:05:52;21.40;99.90
12557;DHT22;6344;49.932;8.308;2023-06-22T01:08:29;21.20;99.90
12557;DHT22;6344;49.932;8.308;2023-06-22T01:11:04;21.40;99.90
12557;DHT22;6344;49.932;8.308;2023-06-22T01:13:36;21.30;99.90
12557;DHT22;6344;49.932;8.308;2023-06-22T01:16:07;21.10;99.90
12557;DHT22;6344;49.932;8.308;2023-06-22T01:18:37;20.90;99.90
12557;DHT22;6344;49.932;8.308;2023-06-22T01:21:11;20.80;99.90
12557;DHT22;6344;49.932;8.308;2023-06-22T01:23:50;20.70;99.90
12557;DHT22;6344;49.932;8.308;2023-06-22T01:26:20;20.40;99.90
12557;DHT22;6344;49.932;8.308;2023-06-22T01:28:50;20.40;99.90
12557;DHT22;6344;49.932;8.308;2023-06-22T01:31:20;20.40;99.90
12557;DHT22;6344;49.932;8.308;2023-06-22T01:33:50;20.40;99.90
12557;DHT22;6344;49.932;8.308;2023-06-22T01:36:18;20.40;99.90
12557;DHT22;6344;49.932;8.308;2023-06-22T01:38:45;20.50;99.90
12557;DHT22;6344;49.932;8.308;2023-06-22T01:41:13;20.40;99.90
12557;DHT22;6344;49.932;8.308;2023-06-22T01:43:40;20.50;99.90
12557;DHT22;6344;49.932;8.308;2023-06-22T01:46:09;20.60;99.90
12557;DHT22;6344;49.932;8.308;2023-06-22T01:48:36;20.70;99.90
12557;DHT22;6344;49.932;8.308;2023-06-22T01:51:03;20.80;99.90
12557;DHT22;6344;49.932;8.308;2023-06-22T01:53:30;20.80;99.90
12557;DHT22;6344;49.932;8.308;2023-06-22T01:55:57;20.70;99.90
12557;DHT22;6344;49.932;8.308;2023-06-22T01:58:25;20.60;99.90
12557;DHT22;6344;49.932;8.308;2023-06-22T02:00:56;20.50;99.90
12557;DHT22;6344;49.932;8.308;2023-06-22T02:03:30;20.70;99.90
12557;DHT22;6344;49.932;8.308;2023-06-22T02:06:03;20.70;99.90
12557;DHT22;6344;49.932;8.308;2023-06-22T02:08:32;20.80;99.90
12557;DHT22;6344;49.932;8.308;2023-06-22T02:11:00;20.80;99.90
12557;DHT22;6344;49.932;8.308;2023-06-22T02:13:28;20.70;99.90
12557;DHT22;6344;49.932;8.308;2023-06-22T02:15:56;20.70;99.90
12557;DHT22;6344;49.932;8.308;2023-06-22T02:18:22;20.70;99.90
12557;DHT22;6344;49.932;8.308;2023-06-22T02:20:52;20.70;99.90
12557;DHT22;6344;49.932;8.308;2023-06-22T02:23:18;20.60;99.90
12557;DHT22;6344;49.932;8.308;2023-06-22T02:25:45;20.70;99.90
12557;DHT22;6344;49.932;8.308;2023-06-22T02:28:12;20.80;99.90
12557;DHT22;6344;49.932;8.308;2023-06-22T02:30:39;20.80;99.90
12557;DHT22;6344;49.932;8.308;2023-06-22T02:33:06;20.90;99.90
12557;DHT22;6344;49.932;8.308;2023-06-22T02:35:32;21.00;99.90
12557;DHT22;6344;49.932;8.308;2023-06-22T02:38:03;21.00;99.90
12557;DHT22;6344;49.932;8.308;2023-06-22T02:40:30;20.90;99.90
12557;DHT22;6344;49.932;8.308;2023-06-22T02:42:58;21.10;99.90
12557;DHT22;6344;49.932;8.308;2023-06-22T02:45:27;21.10;99.90
12557;DHT22;6344;49.932;8.308;2023-06-22T02:47:54;21.20;99.90
12557;DHT22;6344;49.932;8.308;2023-06-22T02:50:21;21.10;99.90
12557;DHT22;6344;49.932;8.308;2023-06-22T02:52:48;21.10;99.90
12557;DHT22;6344;49.932;8.308;2023-06-22T02:55:15;21.00;99.90
12557;DHT22;6344;49.932;8.308;2023-06-22T02:57:42;20.80;99.90
12557;DHT22;6344;49.932;8.308;2023-06-22T03:00:11;20.80;99.90
12557;DHT22;6344;49.932;8.308;2023-06-22T03:02:42;20.90;99.90
12557;DHT22;6344;49.932;8.308;2023-06-22T03:05:09;21.10;99.90
12557;DHT22;6344;49.932;8.308;2023-06-22T03:07:39;21.00;99.90
12557;DHT22;6344;49.932;8.308;2023-06-22T03:10:07;21.00;99.90
12557;DHT22;6344;49.932;8.308;2023-06-22T03:12:36;20.80;99.90
12557;DHT22;6344;49.932;8.308;2023-06-22T03:15:03;20.60;99.90
12557;DHT22;6344;49.932;8.308;2023-06-22T03:17:30;20.40;99.90
12557;DHT22;6344;49.932;8.308;2023-06-22T03:19:57;20.40;99.90
12557;DHT22;6344;49.932;8.308;2023-06-22T03:22:23;20.30;99.90
12557;DHT22;6344;49.932;8.308;2023-06-22T03:24:50;20.30;99.90
12557;DHT22;6344;49.932;8.308;2023-06-22T03:27:17;20.20;99.90
12557;DHT22;6344;49.932;8.308;2023-06-22T03:29:45;20.10;99.90
12557;DHT22;6344;49.932;8.308;2023-06-22T03:32:11;20.10;99.90
12557;DHT22;6344;49.932;8.308;2023-06-22T03:34:38;20.20;99.90
12557;DHT22;6344;49.932;8.308;2023-06-22T03:37:05;20.40;99.90
12557;DHT22;6344;49.932;8.308;2023-06-22T03:39:31;20.40;99.90
12557;DHT22;6344;49.932;8.308;2023-06-22T03:41:58;20.40;99.90
12557;DHT22;6344;49.932;8.308;2023-06-22T03:44:25;20.40;99.90
12557;DHT22;6344;49.932;8.308;2023-06-22T03:46:53;20.30;99.90
12557;DHT22;6344;49.932;8.308;2023-06-22T03:49:20;20.30;99.90
12557;DHT22;6344;49.932;8.308;2023-06-22T03:51:46;20.30;99.90
12557;DHT22;6344;49.932;8.308;2023-06-22T03:54:13;20.30;99.90
12557;DHT22;6344;49.932;8.308;2023-06-22T03:56:40;20.40;99.90
12557;DHT22;6344;49.932;8.308;2023-06-22T03:59:06;20.50;99.90
12557;DHT22;6344;49.932;8.308;2023-06-22T04:01:33;20.60;99.90
12557;DHT22;6344;49.932;8.308;2023-06-22T04:04:01;20.60;99.90
12557;DHT22;6344;49.932;8.308;2023-06-22T04:06:28;20.70;99.90
12557;DHT22;6344;49.932;8.308;2023-06-22T04:08:54;20.80;99.90
12557;DHT22;6344;49.932;8.308;2023-06-22T04:11:21;20.80;99.90
12557;DHT22;6344;49.932;8.308;2023-06-22T04:13:48;21.00;99.90
12557;DHT22;6344;49.932;8.308;2023-06-22T04:16:16;21.10;99.90
12557;DHT22;6344;49.932;8.308;2023-06-22T04:18:43;21.10;99.90
12557;DHT22;6344;49.932;8.308;2023-06-22T04:21:11;21.20;99.90
12557;DHT22;6344;49.932;8.308;2023-06-22T04:23:38;21.10;99.90
12557;DHT22;6344;49.932;8.308;2023-06-22T04:26:04;21.10;99.90
12557;DHT22;6344;49.932;8.308;2023-06-22T04:28:31;21.10;99.90
12557;DHT22;6344;49.932;8.308;2023-06-22T04:31:00;21.10;99.90
12557;DHT22;6344;49.932;8.308;2023-06-22T04:33:27;21.10;99.90
12557;DHT22;6344;49.932;8.308;2023-06-22T04:35:55;21.20;99.90
12557;DHT22;6344;49.932;8.308;2023-06-22T04:38:24;21.20;99.90
12557;DHT22;6344;49.932;8.308;2023-06-22T04:40:51;21.20;99.90
12557;DHT22;6344;49.932;8.308;2023-06-22T04:43:18;21.20;99.90
12557;DHT22;6344;49.932;8.308;2023-06-22T04:45:45;21.20;99.90
12557;DHT22;6344;49.932;8.308;2023-06-22T04:48:12;21.20;99.90
12557;DHT22;6344;49.932;8.308;2023-06-22T04:50:41;21.00;99.90
12557;DHT22;6344;49.932;8.308;2023-06-22T04:53:08;21.00;99.90
12557;DHT22;6344;49.932;8.308;2023-06-22T04:55:39;21.10;99.90
12557;DHT22;6344;49.932;8.308;2023-06-22T04:58:11;21.00;99.90
12557;DHT22;6344;49.932;8.308;2023-06-22T05:00:38;20.90;99.90
12557;DHT22;6344;49.932;8.308;2023-06-22T05:03:05;20.80;99.90
12557;DHT22;6344;49.932;8.308;2023-06-22T05:05:36;20.90;99.90
12557;DHT22;6344;49.932;8.308;2023-06-22T05:08:03;20.80;99.90
12557;DHT22;6344;49.932;8.308;2023-06-22T05:10:32;20.90;99.90
12557;DHT22;6344;49.932;8.308;2023-06-22T05:13:00;20.80;99.90
12557;DHT22;6344;49.932;8.308;2023-06-22T05:15:26;20.80;99.90
12557;DHT22;6344;49.932;8.308;2023-06-22T05:17:56;21.00;99.90
12557;DHT22;6344;49.932;8.308;2023-06-22T05:20:23;21.30;99.90
12557;DHT22;6344;49.932;8.308;2023-06-22T05:22:50;21.50;99.90
12557;DHT22;6344;49.932;8.308;2023-06-22T05:25:17;21.70;99.90
12557;DHT22;6344;49.932;8.308;2023-06-22T05:27:43;21.80;99.90
12557;DHT22;6344;49.932;8.308;2023-06-22T05:30:11;22.00;99.90
12557;DHT22;6344;49.932;8.308;2023-06-22T05:32:38;22.00;99.90
12557;DHT22;6344;49.932;8.308;2023-06-22T05:35:05;22.10;99.90
12557;DHT22;6344;49.932;8.308;2023-06-22T05:37:32;22.20;99.90
12557;DHT22;6344;49.932;8.308;2023-06-22T05:39:59;22.30;99.90
12557;DHT22;6344;49.932;8.308;2023-06-22T05:42:25;22.40;99.90
12557;DHT22;6344;49.932;8.308;2023-06-22T05:44:52;22.50;99.90
12557;DHT22;6344;49.932;8.308;2023-06-22T05:47:20;22.70;99.90
12557;DHT22;6344;49.932;8.308;2023-06-22T05:49:48;22.90;99.90
12557;DHT22;6344;49.932;8.308;2023-06-22T05:52:15;23.10;99.90
12557;DHT22;6344;49.932;8.308;2023-06-22T05:54:41;23.10;99.90
12557;DHT22;6344;49.932;8.308;2023-06-22T05:57:08;23.20;99.90
12557;DHT22;6344;49.932;8.308;2023-06-22T05:59:35;23.60;99.90
12557;DHT22;6344;49.932;8.308;2023-06-22T06:02:01;23.80;99.90
12557;DHT22;6344;49.932;8.308;2023-06-22T06:04:29;23.90;99.90
12557;DHT22;6344;49.932;8.308;2023-06-22T06:06:56;24.10;99.90
12557;DHT22;6344;49.932;8.308;2023-06-22T06:09:23;24.10;99.90
12557;DHT22;6344;49.932;8.308;2023-06-22T06:11:50;24.60;99.90
12557;DHT22;6344;49.932;8.308;2023-06-22T06:14:16;24.70;99.90
12557;DHT22;6344;49.932;8.308;2023-06-22T06:16:43;24.80;99.90
12557;DHT22;6344;49.932;8.308;2023-06-22T06:19:10;25.30;99.90
12557;DHT22;6344;49.932;8.308;2023-06-22T06:21:38;25.60;99.90
12557;DHT22;6344;49.932;8.308;2023-06-22T06:24:05;26.00;99.90
12557;DHT22;6344;49.932;8.308;2023-06-22T06:26:31;26.30;99.90
12557;DHT22;6344;49.932;8.308;2023-06-22T06:28:59;26.50;99.90
12557;DHT22;6344;49.932;8.308;2023-06-22T06:31:27;26.30;99.90
12557;DHT22;6344;49.932;8.308;2023-06-22T06:33:54;26.20;99.90
12557;DHT22;6344;49.932;8.308;2023-06-22T06:36:21;26.60;99.90
12557;DHT22;6344;49.932;8.308;2023-06-22T06:38:49;26.70;99.90
12557;DHT22;6344;49.932;8.308;2023-06-22T06:41:15;27.20;99.90
12557;DHT22;6344;49.932;8.308;2023-06-22T06:43:42;27.20;99.90
12557;DHT22;6344;49.932;8.308;2023-06-22T06:46:09;27.20;99.90
12557;DHT22;6344;49.932;8.308;2023-06-22T06:48:36;27.30;99.90
12557;DHT22;6344;49.932;8.308;2023-06-22T06:51:02;27.20;99.90
12557;DHT22;6344;49.932;8.308;2023-06-22T06:53:29;27.30;99.90
12557;DHT22;6344;49.932;8.308;2023-06-22T06:55:57;26.70;99.90
12557;DHT22;6344;49.932;8.308;2023-06-22T06:58:24;26.60;99.90
12557;DHT22;6344;49.932;8.308;2023-06-22T07:00:50;26.60;99.90
12557;DHT22;6344;49.932;8.308;2023-06-22T07:03:17;26.40;99.90
12557;DHT22;6344;49.932;8.308;2023-06-22T07:05:43;26.30;99.90
12557;DHT22;6344;49.932;8.308;2023-06-22T07:08:10;26.50;99.90
12557;DHT22;6344;49.932;8.308;2023-06-22T07:10:37;26.70;99.90
12557;DHT22;6344;49.932;8.308;2023-06-22T07:13:05;27.00;99.90
12557;DHT22;6344;49.932;8.308;2023-06-22T07:15:31;27.40;99.90
12557;DHT22;6344;49.932;8.308;2023-06-22T07:17:58;27.50;99.90
12557;DHT22;6344;49.932;8.308;2023-06-22T07:20:25;27.90;99.90
12557;DHT22;6344;49.932;8.308;2023-06-22T07:22:51;28.30;99.90
12557;DHT22;6344;49.932;8.308;2023-06-22T07:25:18;28.00;99.90
12557;DHT22;6344;49.932;8.308;2023-06-22T07:27:47;28.10;99.90
12557;DHT22;6344;49.932;8.308;2023-06-22T07:30:24;28.00;99.90
12557;DHT22;6344;49.932;8.308;2023-06-22T07:32:51;28.10;99.90
12557;DHT22;6344;49.932;8.308;2023-06-22T07:35:18;28.40;99.90
12557;DHT22;6344;49.932;8.308;2023-06-22T07:37:44;28.50;99.90
12557;DHT22;6344;49.932;8.308;2023-06-22T07:40:12;28.60;99.90
12557;DHT22;6344;49.932;8.308;2023-06-22T07:42:39;28.80;99.90
12557;DHT22;6344;49.932;8.308;2023-06-22T07:45:06;29.10;99.90
12557;DHT22;6344;49.932;8.308;2023-06-22T07:47:35;29.80;99.90
12557;DHT22;6344;49.932;8.308;2023-06-22T07:50:03;30.50;99.90
12557;DHT22;6344;49.932;8.308;2023-06-22T07:52:30;30.10;99.90
12557;DHT22;6344;49.932;8.308;2023-06-22T07:54:57;30.00;99.90
12557;DHT22;6344;49.932;8.308;2023-06-22T07:57:24;29.60;99.90
12557;DHT22;6344;49.932;8.308;2023-06-22T07:59:57;29.50;99.90
12557;DHT22;6344;49.932;8.308;2023-06-22T08:02:24;29.70;99.90
12557;DHT22;6344;49.932;8.308;2023-06-22T08:04:52;29.70;99.90
12557;DHT22;6344;49.932;8.308;2023-06-22T08:07:18;29.60;99.90
12557;DHT22;6344;49.932;8.308;2023-06-22T08:09:46;29.60;99.90
12557;DHT22;6344;49.932;8.308;2023-06-22T08:12:14;30.30;99.90
12557;DHT22;6344;49.932;8.308;2023-06-22T08:14:42;30.30;99.90
12557;DHT22;6344;49.932;8.308;2023-06-22T08:17:09;30.50;99.90
12557;DHT22;6344;49.932;8.308;2023-06-22T08:19:37;30.80;99.90
12557;DHT22;6344;49.932;8.308;2023-06-22T08:22:05;30.10;99.90
12557;DHT22;6344;49.932;8.308;2023-06-22T08:24:32;30.40;99.90
12557;DHT22;6344;49.932;8.308;2023-06-22T08:26:59;31.00;99.90
12557;DHT22;6344;49.932;8.308;2023-06-22T08:29:25;30.90;99.90
12557;DHT22;6344;49.932;8.308;2023-06-22T08:31:52;30.70;99.90
12557;DHT22;6344;49.932;8.308;2023-06-22T08:34:19;30.90;99.90
12557;DHT22;6344;49.932;8.308;2023-06-22T08:36:48;31.30;99.90
12557;DHT22;6344;49.932;8.308;2023-06-22T08:39:18;31.30;99.90
12557;DHT22;6344;49.932;8.308;2023-06-22T08:41:45;31.90;99.90
12557;DHT22;6344;49.932;8.308;2023-06-22T08:44:12;31.80;99.90
12557;DHT22;6344;49.932;8.308;2023-06-22T08:46:38;31.40;99.90
12557;DHT22;6344;49.932;8.308;2023-06-22T08:49:07;31.70;99.90
12557;DHT22;6344;49.932;8.308;2023-06-22T08:51:35;31.70;99.90
12557;DHT22;6344;49.932;8.308;2023-06-22T08:54:01;31.50;99.90
12557;DHT22;6344;49.932;8.308;2023-06-22T08:56:29;31.10;99.90
12557;DHT22;6344;49.932;8.308;2023-06-22T08:58:56;31.30;99.90
12557;DHT22;6344;49.932;8.308;2023-06-22T09:01:23;31.20;99.90
12557;DHT22;6344;49.932;8.308;2023-06-22T09:03:49;31.20;99.90
12557;DHT22;6344;49.932;8.308;2023-06-22T09:06:20;31.80;99.90
12557;DHT22;6344;49.932;8.308;2023-06-22T09:08:47;32.80;99.90
12557;DHT22;6344;49.932;8.308;2023-06-22T09:11:14;33.30;99.90
12557;DHT22;6344;49.932;8.308;2023-06-22T09:13:42;33.40;99.90
12557;DHT22;6344;49.932;8.308;2023-06-22T09:16:09;33.70;99.90
12557;DHT22;6344;49.932;8.308;2023-06-22T09:18:35;34.30;99.90
12557;DHT22;6344;49.932;8.308;2023-06-22T09:21:02;33.80;99.90
12557;DHT22;6344;49.932;8.308;2023-06-22T09:23:29;34.20;99.90
12557;DHT22;6344;49.932;8.308;2023-06-22T09:25:55;34.10;99.90
12557;DHT22;6344;49.932;8.308;2023-06-22T09:28:22;34.10;99.90
12557;DHT22;6344;49.932;8.308;2023-06-22T09:30:50;33.40;99.90
12557;DHT22;6344;49.932;8.308;2023-06-22T09:33:17;33.70;99.90
12557;DHT22;6344;49.932;8.308;2023-06-22T09:35:45;33.00;99.90
12557;DHT22;6344;49.932;8.308;2023-06-22T09:38:11;33.20;99.90
12557;DHT22;6344;49.932;8.308;2023-06-22T09:40:38;32.60;99.90
12557;DHT22;6344;49.932;8.308;2023-06-22T09:43:05;32.50;99.90
12557;DHT22;6344;49.932;8.308;2023-06-22T09:45:32;31.70;99.90
12557;DHT22;6344;49.932;8.308;2023-06-22T09:48:00;31.70;99.90
12557;DHT22;6344;49.932;8.308;2023-06-22T09:50:26;31.70;99.90
12557;DHT22;6344;49.932;8.308;2023-06-22T09:52:53;32.60;99.90
12557;DHT22;6344;49.932;8.308;2023-06-22T09:55:20;32.80;99.90
12557;DHT22;6344;49.932;8.308;2023-06-22T09:57:47;33.30;99.90
12557;DHT22;6344;49.932;8.308;2023-06-22T10:00:16;33.60;99.90
12557;DHT22;6344;49.932;8.308;2023-06-22T10:02:44;33.80;99.90
12557;DHT22;6344;49.932;8.308;2023-06-22T10:05:12;33.80;99.90
12557;DHT22;6344;49.932;8.308;2023-06-22T10:07:39;33.50;99.90
12557;DHT22;6344;49.932;8.308;2023-06-22T10:10:09;33.80;99.90
12557;DHT22;6344;49.932;8.308;2023-06-22T10:12:36;33.40;99.90
12557;DHT22;6344;49.932;8.308;2023-06-22T10:15:03;34.20;99.90
12557;DHT22;6344;49.932;8.308;2023-06-22T10:17:30;34.50;99.90
12557;DHT22;6344;49.932;8.308;2023-06-22T10:19:56;34.00;99.90
12557;DHT22;6344;49.932;8.308;2023-06-22T10:22:24;34.00;99.90
12557;DHT22;6344;49.932;8.308;2023-06-22T10:24:51;34.40;99.90
12557;DHT22;6344;49.932;8.308;2023-06-22T10:27:17;35.40;99.90
12557;DHT22;6344;49.932;8.308;2023-06-22T10:29:44;36.60;99.90
12557;DHT22;6344;49.932;8.308;2023-06-22T10:32:11;36.80;99.90
12557;DHT22;6344;49.932;8.308;2023-06-22T10:34:37;35.30;99.90
12557;DHT22;6344;49.932;8.308;2023-06-22T10:37:04;35.80;99.90
12557;DHT22;6344;49.932;8.308;2023-06-22T10:39:32;36.00;99.90
12557;DHT22;6344;49.932;8.308;2023-06-22T10:41:59;35.80;99.90
12557;DHT22;6344;49.932;8.308;2023-06-22T10:44:26;35.70;99.90
12557;DHT22;6344;49.932;8.308;2023-06-22T10:46:52;35.80;99.90
12557;DHT22;6344;49.932;8.308;2023-06-22T10:49:19;35.60;99.90
12557;DHT22;6344;49.932;8.308;2023-06-22T10:51:46;35.60;99.90
12557;DHT22;6344;49.932;8.308;2023-06-22T10:54:12;35.50;99.90
12557;DHT22;6344;49.932;8.308;2023-06-22T10:56:41;35.90;99.90
12557;DHT22;6344;49.932;8.308;2023-06-22T10:59:07;35.30;99.90
12557;DHT22;6344;49.932;8.308;2023-06-22T11:01:34;35.50;99.90
12557;DHT22;6344;49.932;8.308;2023-06-22T11:07:48;36.20;99.90
12557;DHT22;6344;49.932;8.308;2023-06-22T11:10:16;35.40;99.90
12557;DHT22;6344;49.932;8.308;2023-06-22T11:12:44;35.80;99.90
12557;DHT22;6344;49.932;8.308;2023-06-22T11:15:10;36.10;99.90
12557;DHT22;6344;49.932;8.308;2023-06-22T11:17:37;35.80;99.90
12557;DHT22;6344;49.932;8.308;2023-06-22T11:20:05;36.00;99.90
12557;DHT22;6344;49.932;8.308;2023-06-22T11:22:36;36.40;99.90
12557;DHT22;6344;49.932;8.308;2023-06-22T11:25:03;36.60;99.90
12557;DHT22;6344;49.932;8.308;2023-06-22T11:27:30;36.60;99.90
12557;DHT22;6344;49.932;8.308;2023-06-22T11:29:58;36.70;99.90
12557;DHT22;6344;49.932;8.308;2023-06-22T11:32:25;36.50;99.90
12557;DHT22;6344;49.932;8.308;2023-06-22T11:34:51;36.40;99.90
12557;DHT22;6344;49.932;8.308;2023-06-22T11:37:18;36.70;99.90
12557;DHT22;6344;49.932;8.308;2023-06-22T11:39:45;36.10;99.90
12557;DHT22;6344;49.932;8.308;2023-06-22T11:42:12;36.60;99.90
12557;DHT22;6344;49.932;8.308;2023-06-22T11:44:38;36.90;99.90
12557;DHT22;6344;49.932;8.308;2023-06-22T11:47:07;38.00;99.90
12557;DHT22;6344;49.932;8.308;2023-06-22T11:49:33;37.90;99.90
12557;DHT22;6344;49.932;8.308;2023-06-22T11:52:00;36.80;99.90
12557;DHT22;6344;49.932;8.308;2023-06-22T11:54:27;37.30;99.90
12557;DHT22;6344;49.932;8.308;2023-06-22T11:56:53;37.40;99.90
12557;DHT22;6344;49.932;8.308;2023-06-22T11:59:20;37.00;99.90
12557;DHT22;6344;49.932;8.308;2023-06-22T12:01:47;37.60;99.90
12557;DHT22;6344;49.932;8.308;2023-06-22T12:04:17;38.40;99.90
12557;DHT22;6344;49.932;8.308;2023-06-22T12:06:43;38.50;99.90
12557;DHT22;6344;49.932;8.308;2023-06-22T12:09:10;39.00;99.90
12557;DHT22;6344;49.932;8.308;2023-06-22T12:11:39;39.30;99.90
12557;DHT22;6344;49.932;8.308;2023-06-22T12:14:05;38.90;99.90
12557;DHT22;6344;49.932;8.308;2023-06-22T12:16:32;40.00;99.90
12557;DHT22;6344;49.932;8.308;2023-06-22T12:18:59;40.50;99.90
12557;DHT22;6344;49.932;8.308;2023-06-22T12:21:27;40.50;99.90
12557;DHT22;6344;49.932;8.308;2023-06-22T12:23:54;41.00;99.90
12557;DHT22;6344;49.932;8.308;2023-06-22T12:26:21;40.40;99.90
12557;DHT22;6344;49.932;8.308;2023-06-22T12:28:48;39.80;99.90
12557;DHT22;6344;49.932;8.308;2023-06-22T12:31:14;39.80;99.90
12557;DHT22;6344;49.932;8.308;2023-06-22T12:33:41;38.80;99.90
12557;DHT22;6344;49.932;8.308;2023-06-22T12:36:08;38.20;99.90
12557;DHT22;6344;49.932;8.308;2023-06-22T12:38:36;37.70;99.90
12557;DHT22;6344;49.932;8.308;2023-06-22T12:41:02;37.70;99.90
12557;DHT22;6344;49.932;8.308;2023-06-22T12:43:29;37.70;99.90
12557;DHT22;6344;49.932;8.308;2023-06-22T12:45:56;37.70;99.90
12557;DHT22;6344;49.932;8.308;2023-06-22T12:48:23;38.50;99.90
12557;DHT22;6344;49.932;8.308;2023-06-22T12:50:50;38.50;99.90
12557;DHT22;6344;49.932;8.308;2023-06-22T12:53:17;38.60;99.90
12557;DHT22;6344;49.932;8.308;2023-06-22T12:55:45;38.50;99.90
12557;DHT22;6344;49.932;8.308;2023-06-22T12:58:12;38.20;99.90
12557;DHT22;6344;49.932;8.308;2023-06-22T13:00:38;37.80;99.90
12557;DHT22;6344;49.932;8.308;2023-06-22T13:03:05;37.70;99.90
12557;DHT22;6344;49.932;8.308;2023-06-22T13:05:32;37.80;99.90
12557;DHT22;6344;49.932;8.308;2023-06-22T13:08:00;38.90;99.90
12557;DHT22;6344;49.932;8.308;2023-06-22T13:10:27;39.20;99.90
12557;DHT22;6344;49.932;8.308;2023-06-22T13:12:54;38.60;99.90
12557;DHT22;6344;49.932;8.308;2023-06-22T13:15:26;38.60;99.90
12557;DHT22;6344;49.932;8.308;2023-06-22T13:17:52;38.20;99.90
12557;DHT22;6344;49.932;8.308;2023-06-22T13:20:19;37.30;99.90
12557;DHT22;6344;49.932;8.308;2023-06-22T13:22:46;36.20;99.90
12557;DHT22;6344;49.932;8.308;2023-06-22T13:25:12;36.00;99.90
12557;DHT22;6344;49.932;8.308;2023-06-22T13:27:44;36.10;99.90
12557;DHT22;6344;49.932;8.308;2023-06-22T13:30:13;37.20;99.90
12557;DHT22;6344;49.932;8.308;2023-06-22T13:32:39;37.40;99.90
12557;DHT22;6344;49.932;8.308;2023-06-22T13:35:07;38.10;99.90
12557;DHT22;6344;49.932;8.308;2023-06-22T13:37:34;38.70;99.90
12557;DHT22;6344;49.932;8.308;2023-06-22T13:40:01;39.50;99.90
12557;DHT22;6344;49.932;8.308;2023-06-22T13:42:30;39.90;99.90
12557;DHT22;6344;49.932;8.308;2023-06-22T13:44:57;39.80;99.90
12557;DHT22;6344;49.932;8.308;2023-06-22T13:47:25;39.80;99.90
12557;DHT22;6344;49.932;8.308;2023-06-22T13:49:51;39.60;99.90
12557;DHT22;6344;49.932;8.308;2023-06-22T13:52:18;39.80;99.90
12557;DHT22;6344;49.932;8.308;2023-06-22T13:54:45;39.60;99.90
12557;DHT22;6344;49.932;8.308;2023-06-22T13:57:11;38.60;99.90
12557;DHT22;6344;49.932;8.308;2023-06-22T13:59:38;37.20;99.90
12557;DHT22;6344;49.932;8.308;2023-06-22T14:02:05;37.30;99.90
12557;DHT22;6344;49.932;8.308;2023-06-22T14:04:33;37.60;99.90
12557;DHT22;6344;49.932;8.308;2023-06-22T14:07:00;37.40;99.90
12557;DHT22;6344;49.932;8.308;2023-06-22T14:09:26;37.50;99.90
12557;DHT22;6344;49.932;8.308;2023-06-22T14:11:54;37.20;99.90
12557;DHT22;6344;49.932;8.308;2023-06-22T14:14:21;35.90;99.90
12557;DHT22;6344;49.932;8.308;2023-06-22T14:16:48;35.30;99.90
12557;DHT22;6344;49.932;8.308;2023-06-22T14:19:16;34.60;99.90
12557;DHT22;6344;49.932;8.308;2023-06-22T14:21:44;34.50;99.90
12557;DHT22;6344;49.932;8.308;2023-06-22T14:24:11;34.40;99.90
12557;DHT22;6344;49.932;8.308;2023-06-22T14:26:37;34.40;99.90
12557;DHT22;6344;49.932;8.308;2023-06-22T14:29:04;34.60;99.90
12557;DHT22;6344;49.932;8.308;2023-06-22T14:31:31;34.90;99.90
12557;DHT22;6344;49.932;8.308;2023-06-22T14:33:57;35.00;99.90
12557;DHT22;6344;49.932;8.308;2023-06-22T14:36:24;34.70;99.90
12557;DHT22;6344;49.932;8.308;2023-06-22T14:38:52;34.60;99.90
12557;DHT22;6344;49.932;8.308;2023-06-22T14:41:19;34.30;99.90
12557;DHT22;6344;49.932;8.308;2023-06-22T14:43:46;34.40;99.90
12557;DHT22;6344;49.932;8.308;2023-06-22T14:46:14;34.20;99.90
12557;DHT22;6344;49.932;8.308;2023-06-22T14:48:41;34.10;99.90
12557;DHT22;6344;49.932;8.308;2023-06-22T14:51:08;34.10;99.90
12557;DHT22;6344;49.932;8.308;2023-06-22T14:53:34;33.50;99.90
12557;DHT22;6344;49.932;8.308;2023-06-22T14:56:03;33.40;99.90
12557;DHT22;6344;49.932;8.308;2023-06-22T14:58:30;32.90;1.00
12557;DHT22;6344;49.932;8.308;2023-06-22T15:00:58;32.40;1.00
12557;DHT22;6344;49.932;8.308;2023-06-22T15:03:25;32.10;99.90
12557;DHT22;6344;49.932;8.308;2023-06-22T15:05:54;31.10;99.90
12557;DHT22;6344;49.932;8.308;2023-06-22T15:08:21;28.90;99.90
12557;DHT22;6344;49.932;8.308;2023-06-22T15:10:48;28.00;99.90
12557;DHT22;6344;49.932;8.308;2023-06-22T15:13:16;28.00;99.90
12557;DHT22;6344;49.932;8.308;2023-06-22T15:15:43;28.00;99.90
12557;DHT22;6344;49.932;8.308;2023-06-22T15:18:10;28.20;99.90
12557;DHT22;6344;49.932;8.308;2023-06-22T15:20:37;28.40;99.90
12557;DHT22;6344;49.932;8.308;2023-06-22T15:23:03;28.80;99.90
12557;DHT22;6344;49.932;8.308;2023-06-22T15:25:30;29.40;99.90
12557;DHT22;6344;49.932;8.308;2023-06-22T15:27:57;29.60;99.90
12557;DHT22;6344;49.932;8.308;2023-06-22T15:30:25;29.70;99.90
12557;DHT22;6344;49.932;8.308;2023-06-22T15:32:51;29.50;99.90
12557;DHT22;6344;49.932;8.308;2023-06-22T15:35:18;29.40;99.90
12557;DHT22;6344;49.932;8.308;2023-06-22T15:37:45;29.50;99.90
12557;DHT22;6344;49.932;8.308;2023-06-22T15:40:12;29.40;99.90
12557;DHT22;6344;49.932;8.308;2023-06-22T15:42:38;29.40;99.90
12557;DHT22;6344;49.932;8.308;2023-06-22T15:45:06;29.50;99.90
12557;DHT22;6344;49.932;8.308;2023-06-22T15:47:34;29.40;99.90
12557;DHT22;6344;49.932;8.308;2023-06-22T15:50:02;29.20;99.90
12557;DHT22;6344;49.932;8.308;2023-06-22T15:52:29;29.00;99.90